createdAt,value
2023-05-01T00:01:08.818Z,22.64
2023-05-01T00:02:08.847Z,22.64
2023-05-01T00:03:08.946Z,22.63
2023-05-01T00:04:09.396Z,22.63
2023-05-01T00:05:09.055Z,22.67
2023-05-01T00:06:08.963Z,22.63
2023-05-01T00:07:08.963Z,22.54
2023-05-01T00:09:09.017Z,22.67
2023-05-01T00:10:09.060Z,22.63
2023-05-01T00:11:09.369Z,22.66
2023-05-01T00:12:09.132Z,22.59
2023-05-01T00:13:09.125Z,22.57
2023-05-01T00:14:09.154Z,22.61
2023-05-01T00:15:09.176Z,22.57
2023-05-01T00:16:09.267Z,22.60
2023-05-01T00:17:09.334Z,22.52
2023-05-01T00:18:09.668Z,22.61
2023-05-01T00:19:09.293Z,22.56
2023-05-01T00:20:09.329Z,22.64
2023-05-01T00:22:09.400Z,22.57
2023-05-01T00:23:09.424Z,22.56
2023-05-01T00:24:09.460Z,22.60
2023-05-01T00:26:09.809Z,22.57
2023-05-01T00:27:09.526Z,22.63
2023-05-01T00:28:09.546Z,22.52
2023-05-01T00:29:09.579Z,22.56
2023-05-01T00:30:09.616Z,22.60
2023-05-01T00:31:09.635Z,22.59
2023-05-01T00:32:09.706Z,22.59
2023-05-01T00:33:10.012Z,22.57
2023-05-01T00:36:09.774Z,22.59
2023-05-01T00:37:09.804Z,22.59
2023-05-01T00:38:09.835Z,22.59
2023-05-01T00:39:09.868Z,22.54
2023-05-01T00:40:10.190Z,22.57
2023-05-01T00:41:09.925Z,22.57
2023-05-01T00:42:09.974Z,22.57
2023-05-01T00:43:09.981Z,22.57
2023-05-01T00:44:10.012Z,22.59
2023-05-01T00:46:10.224Z,22.63
2023-05-01T00:47:10.392Z,22.57
2023-05-01T00:48:10.261Z,22.57
2023-05-01T00:49:10.156Z,22.61
2023-05-01T00:50:10.180Z,22.57
2023-05-01T00:51:10.209Z,22.51
2023-05-01T00:52:10.242Z,22.48
2023-05-01T00:53:10.256Z,22.59
2023-05-01T00:54:10.537Z,22.46
2023-05-01T00:55:10.316Z,22.48
2023-05-01T00:57:10.372Z,22.57
2023-05-01T00:58:10.454Z,22.51
2023-05-01T00:59:10.428Z,22.56
2023-05-01T01:00:10.457Z,22.45
2023-05-01T01:01:10.814Z,22.48
2023-05-01T01:02:10.516Z,22.48
2023-05-01T01:03:10.575Z,22.51
2023-05-01T01:04:10.713Z,22.49
2023-05-01T01:05:10.599Z,22.51
2023-05-01T01:06:10.639Z,22.51
2023-05-01T01:08:10.979Z,22.51
2023-05-01T01:11:10.762Z,22.48
2023-05-01T01:12:10.790Z,22.48
2023-05-01T01:13:10.822Z,22.46
2023-05-01T01:14:11.222Z,22.46
2023-05-01T01:15:11.181Z,22.51
2023-05-01T01:16:11.003Z,22.44
2023-05-01T01:17:10.981Z,22.49
2023-05-01T01:19:11.013Z,22.48
2023-05-01T01:20:11.049Z,22.45
2023-05-01T01:21:11.057Z,22.57
2023-05-01T01:22:11.368Z,22.46
2023-05-01T01:23:11.096Z,22.49
2023-05-01T01:24:11.121Z,22.46
2023-05-01T01:26:11.206Z,22.48
2023-05-01T01:27:11.256Z,22.48
2023-05-01T01:28:11.246Z,22.52
2023-05-01T01:29:11.591Z,22.52
2023-05-01T01:30:11.319Z,22.52
2023-05-01T01:31:11.377Z,22.49
2023-05-01T01:32:11.463Z,22.49
2023-05-01T01:34:11.410Z,22.51
2023-05-01T01:35:11.441Z,22.49
2023-05-01T01:36:11.773Z,22.45
2023-05-01T01:38:11.533Z,22.49
2023-05-01T01:39:11.548Z,22.44
2023-05-01T01:40:11.601Z,22.46
2023-05-01T01:42:11.633Z,22.44
2023-05-01T01:43:11.972Z,22.48
2023-05-01T01:44:11.697Z,22.49
2023-05-01T01:45:11.720Z,22.45
2023-05-01T01:46:11.797Z,22.45
2023-05-01T01:47:11.776Z,22.39
2023-05-01T01:48:11.909Z,22.45
2023-05-01T01:49:11.833Z,22.41
2023-05-01T01:50:12.208Z,22.45
2023-05-01T01:51:11.892Z,22.44
2023-05-01T01:52:11.911Z,22.51
2023-05-01T01:53:11.968Z,22.51
2023-05-01T01:54:11.978Z,22.42
2023-05-01T01:55:12.008Z,22.45
2023-05-01T01:57:12.073Z,22.45
2023-05-01T01:58:12.410Z,22.52
2023-05-01T01:59:12.112Z,22.44
2023-05-01T02:00:12.152Z,22.54
2023-05-01T02:01:12.201Z,22.46
2023-05-01T02:02:12.271Z,22.51
2023-05-01T02:03:12.312Z,22.51
2023-05-01T02:04:12.291Z,22.48
2023-05-01T02:05:12.585Z,22.51
2023-05-01T02:06:12.399Z,22.46
2023-05-01T02:07:12.342Z,22.49
2023-05-01T02:08:12.368Z,22.46
2023-05-01T02:09:12.394Z,22.48
2023-05-01T02:10:12.447Z,22.48
2023-05-01T02:11:12.456Z,22.49
2023-05-01T02:12:12.800Z,22.39
2023-05-01T02:13:12.518Z,22.39
2023-05-01T02:14:12.537Z,22.45
2023-05-01T02:15:12.567Z,22.49
2023-05-01T02:16:12.752Z,22.49
2023-05-01T02:17:12.620Z,22.48
2023-05-01T02:18:12.677Z,22.45
2023-05-01T02:19:12.989Z,22.45
2023-05-01T02:20:12.715Z,22.48
2023-05-01T02:21:12.741Z,22.39
2023-05-01T02:22:12.768Z,22.45
2023-05-01T02:23:12.793Z,22.38
2023-05-01T02:24:12.826Z,22.42
2023-05-01T02:25:12.857Z,22.41
2023-05-01T02:26:13.179Z,22.41
2023-05-01T02:27:12.912Z,22.36
2023-05-01T02:28:13.042Z,22.39
2023-05-01T02:29:12.959Z,22.36
2023-05-01T02:30:12.993Z,22.44
2023-05-01T02:31:13.053Z,22.41
2023-05-01T02:32:13.045Z,22.39
2023-05-01T02:34:13.569Z,22.45
2023-05-01T02:35:13.132Z,22.35
2023-05-01T02:36:13.161Z,22.44
2023-05-01T02:37:13.292Z,22.44
2023-05-01T02:39:13.250Z,22.48
2023-05-01T02:40:13.379Z,22.44
2023-05-01T02:41:13.605Z,22.39
2023-05-01T02:42:13.349Z,22.41
2023-05-01T02:43:13.357Z,22.41
2023-05-01T02:44:13.385Z,22.41
2023-05-01T02:45:13.510Z,22.33
2023-05-01T02:46:13.518Z,22.42
2023-05-01T02:47:13.532Z,22.41
2023-05-01T02:48:13.872Z,22.44
2023-05-01T02:49:13.540Z,22.45
2023-05-01T02:50:13.694Z,22.39
2023-05-01T02:51:13.580Z,22.41
2023-05-01T02:52:13.613Z,22.39
2023-05-01T02:53:13.641Z,22.42
2023-05-01T02:55:13.801Z,22.45
2023-05-01T02:56:14.038Z,22.41
2023-05-01T02:57:13.761Z,22.45
2023-05-01T02:59:13.846Z,22.42
2023-05-01T03:00:14.190Z,22.39
2023-05-01T03:01:13.873Z,22.33
2023-05-01T03:03:13.932Z,22.42
2023-05-01T03:05:14.271Z,22.42
2023-05-01T03:06:14.215Z,22.42
2023-05-01T03:07:14.080Z,22.41
2023-05-01T03:08:14.079Z,22.38
2023-05-01T03:09:14.189Z,22.39
2023-05-01T03:10:14.206Z,22.44
2023-05-01T03:11:14.172Z,22.35
2023-05-01T03:12:14.657Z,22.45
2023-05-01T03:13:14.198Z,22.44
2023-05-01T03:14:14.233Z,22.46
2023-05-01T03:15:14.258Z,22.38
2023-05-01T03:16:14.327Z,22.41
2023-05-01T03:17:14.410Z,22.44
2023-05-01T03:18:14.366Z,22.36
2023-05-01T03:19:14.678Z,22.35
2023-05-01T03:20:14.406Z,22.46
2023-05-01T03:21:14.421Z,22.33
2023-05-01T03:22:14.472Z,22.41
2023-05-01T03:23:14.476Z,22.35
2023-05-01T03:24:14.504Z,22.42
2023-05-01T03:26:14.565Z,22.35
2023-05-01T03:27:14.840Z,22.46
2023-05-01T03:28:14.621Z,22.33
2023-05-01T03:29:14.652Z,22.41
2023-05-01T03:30:14.682Z,22.42
2023-05-01T03:31:14.709Z,22.39
2023-05-01T03:32:15.023Z,22.41
2023-05-01T03:33:14.999Z,22.35
2023-05-01T03:34:15.100Z,22.42
2023-05-01T03:35:14.906Z,22.39
2023-05-01T03:36:14.837Z,22.35
2023-05-01T03:37:14.868Z,22.31
2023-05-01T03:38:14.923Z,22.39
2023-05-01T03:39:14.923Z,22.38
2023-05-01T03:40:14.960Z,22.38
2023-05-01T03:41:15.280Z,22.36
2023-05-01T03:42:15.011Z,22.39
2023-05-01T03:43:15.141Z,22.41
2023-05-01T03:44:15.063Z,22.26
2023-05-01T03:45:15.101Z,22.38
2023-05-01T03:46:15.203Z,22.36
2023-05-01T03:47:15.150Z,22.39
2023-05-01T03:48:15.487Z,22.44
2023-05-01T03:49:15.206Z,22.39
2023-05-01T03:50:15.243Z,22.36
2023-05-01T03:52:15.292Z,22.26
2023-05-01T03:54:15.387Z,22.33
2023-05-01T03:55:15.673Z,22.35
2023-05-01T03:56:15.407Z,22.31
2023-05-01T03:57:15.462Z,22.41
2023-05-01T03:58:15.476Z,22.44
2023-05-01T03:59:15.483Z,22.41
2023-05-01T04:00:15.534Z,22.39
2023-05-01T04:01:15.595Z,22.44
2023-05-01T04:02:15.896Z,22.36
2023-05-01T04:03:15.717Z,22.36
2023-05-01T04:04:15.718Z,22.39
2023-05-01T04:05:15.658Z,22.35
2023-05-01T04:06:15.726Z,22.35
2023-05-01T04:07:15.817Z,22.39
2023-05-01T04:08:15.776Z,22.36
2023-05-01T04:10:15.823Z,22.38
2023-05-01T04:11:15.865Z,22.36
2023-05-01T04:12:15.902Z,22.38
2023-05-01T04:13:15.996Z,22.38
2023-05-01T04:14:15.908Z,22.35
2023-05-01T04:15:16.144Z,22.29
2023-05-01T04:16:16.270Z,22.42
2023-05-01T04:17:16.298Z,22.31
2023-05-01T04:18:16.134Z,22.36
2023-05-01T04:19:16.063Z,22.41
2023-05-01T04:20:16.081Z,22.39
2023-05-01T04:21:16.108Z,22.36
2023-05-01T04:24:16.439Z,22.39
2023-05-01T04:25:16.232Z,22.36
2023-05-01T04:26:16.268Z,22.31
2023-05-01T04:27:17.040Z,22.39
2023-05-01T04:28:16.298Z,22.42
2023-05-01T04:30:16.462Z,22.39
2023-05-01T04:31:16.688Z,22.35
2023-05-01T04:32:16.417Z,22.41
2023-05-01T04:34:16.472Z,22.31
2023-05-01T04:35:16.541Z,22.36
2023-05-01T04:36:16.551Z,22.38
2023-05-01T04:37:16.554Z,22.39
2023-05-01T04:40:16.936Z,22.39
2023-05-01T04:41:16.966Z,22.46
2023-05-01T04:42:16.720Z,22.36
2023-05-01T04:44:16.754Z,22.38
2023-05-01T04:45:16.802Z,22.44
2023-05-01T04:46:16.835Z,22.39
2023-05-01T04:47:17.081Z,22.42
2023-05-01T04:48:16.898Z,22.42
2023-05-01T04:49:16.889Z,22.36
2023-05-01T04:50:16.921Z,22.45
2023-05-01T04:51:16.949Z,22.45
2023-05-01T04:52:16.968Z,22.38
2023-05-01T04:53:16.998Z,22.44
2023-05-01T04:54:17.332Z,22.41
2023-05-01T04:56:17.081Z,22.39
2023-05-01T04:57:17.120Z,22.36
2023-05-01T04:58:17.167Z,22.39
2023-05-01T04:59:17.167Z,22.44
2023-05-01T05:00:17.203Z,22.41
2023-05-01T05:01:17.556Z,22.36
2023-05-01T05:02:17.292Z,22.36
2023-05-01T05:03:17.352Z,22.44
2023-05-01T05:04:17.311Z,22.39
2023-05-01T05:05:17.348Z,22.45
2023-05-01T05:06:17.414Z,22.36
2023-05-01T05:07:17.434Z,22.33
2023-05-01T05:09:20.047Z,22.48
2023-05-01T05:10:17.479Z,22.46
2023-05-01T05:11:17.507Z,22.49
2023-05-01T05:12:17.552Z,22.36
2023-05-01T05:13:17.574Z,22.48
2023-05-01T05:14:17.717Z,22.46
2023-05-01T05:15:17.727Z,22.41
2023-05-01T05:16:17.992Z,22.45
2023-05-01T05:17:17.694Z,22.45
2023-05-01T05:18:17.793Z,22.45
2023-05-01T05:20:17.786Z,22.49
2023-05-01T05:21:17.794Z,22.42
2023-05-01T05:22:17.820Z,22.48
2023-05-01T05:23:18.142Z,22.56
2023-05-01T05:24:17.870Z,22.48
2023-05-01T05:25:17.907Z,22.52
2023-05-01T05:26:17.981Z,22.52
2023-05-01T05:27:17.962Z,22.51
2023-05-01T05:28:17.989Z,22.49
2023-05-01T05:29:18.028Z,22.48
2023-05-01T05:30:18.546Z,22.48
2023-05-01T05:31:18.069Z,22.52
2023-05-01T05:32:18.197Z,22.48
2023-05-01T05:34:18.155Z,22.57
2023-05-01T05:35:18.190Z,22.51
2023-05-01T05:36:18.213Z,22.49
2023-05-01T05:37:18.536Z,22.60
2023-05-01T05:38:18.266Z,22.61
2023-05-01T05:39:18.288Z,22.49
2023-05-01T05:40:18.321Z,22.57
2023-05-01T05:41:18.362Z,22.54
2023-05-01T05:42:18.387Z,22.59
2023-05-01T05:43:18.402Z,22.59
2023-05-01T05:45:18.716Z,22.54
2023-05-01T05:46:18.566Z,22.56
2023-05-01T05:47:18.521Z,22.59
2023-05-01T05:48:18.597Z,22.57
2023-05-01T05:49:18.598Z,22.60
2023-05-01T05:50:18.629Z,22.63
2023-05-01T05:51:18.630Z,22.57
2023-05-01T05:52:18.958Z,22.66
2023-05-01T05:53:18.696Z,22.59
2023-05-01T05:54:18.732Z,22.57
2023-05-01T05:55:18.752Z,22.69
2023-05-01T05:56:18.795Z,22.72
2023-05-01T05:57:18.810Z,22.57
2023-05-01T05:58:18.830Z,22.72
2023-05-01T05:59:19.270Z,22.69
2023-05-01T06:00:18.886Z,22.72
2023-05-01T06:01:18.915Z,22.67
2023-05-01T06:02:19.099Z,22.66
2023-05-01T06:03:19.063Z,22.67
2023-05-01T06:04:19.009Z,22.69
2023-05-01T06:05:19.083Z,22.66
2023-05-01T06:06:19.417Z,22.72
2023-05-01T06:07:19.089Z,22.74
2023-05-01T06:08:19.126Z,22.75
2023-05-01T06:10:19.175Z,22.74
2023-05-01T06:11:19.212Z,22.74
2023-05-01T06:12:19.229Z,22.74
2023-05-01T06:14:19.541Z,22.76
2023-05-01T06:15:19.327Z,22.67
2023-05-01T06:16:19.462Z,22.76
2023-05-01T06:17:19.371Z,22.74
2023-05-01T06:18:19.503Z,22.72
2023-05-01T06:19:19.435Z,22.74
2023-05-01T06:20:19.467Z,22.72
2023-05-01T06:22:19.769Z,22.74
2023-05-01T06:23:19.546Z,22.72
2023-05-01T06:24:19.573Z,22.72
2023-05-01T06:25:19.609Z,22.72
2023-05-01T06:26:19.633Z,22.72
2023-05-01T06:27:19.655Z,22.78
2023-05-01T06:28:19.938Z,22.82
2023-05-01T06:29:19.716Z,22.79
2023-05-01T06:30:19.738Z,22.78
2023-05-01T06:31:19.858Z,22.86
2023-05-01T06:32:19.795Z,22.85
2023-05-01T06:33:19.846Z,22.84
2023-05-01T06:34:19.884Z,22.86
2023-05-01T06:35:20.139Z,22.88
2023-05-01T06:36:19.927Z,22.89
2023-05-01T06:37:20.036Z,22.85
2023-05-01T06:38:19.961Z,22.89
2023-05-01T06:39:20.002Z,22.97
2023-05-01T06:40:20.027Z,22.97
2023-05-01T06:41:20.056Z,22.85
2023-05-01T06:42:20.382Z,22.91
2023-05-01T06:43:20.108Z,22.94
2023-05-01T06:44:20.137Z,22.96
2023-05-01T06:45:20.171Z,22.96
2023-05-01T06:46:20.241Z,22.99
2023-05-01T06:47:20.258Z,22.99
2023-05-01T06:48:20.250Z,23.01
2023-05-01T06:49:20.597Z,22.96
2023-05-01T06:50:20.339Z,23.06
2023-05-01T06:51:20.329Z,22.96
2023-05-01T06:52:20.464Z,23.06
2023-05-01T06:53:20.390Z,23.00
2023-05-01T06:54:20.432Z,23.01
2023-05-01T06:55:20.507Z,23.00
2023-05-01T06:56:20.778Z,22.97
2023-05-01T06:57:20.506Z,23.00
2023-05-01T06:58:23.924Z,23.04
2023-05-01T06:59:20.558Z,22.99
2023-05-01T07:00:20.592Z,23.03
2023-05-01T07:01:20.663Z,23.09
2023-05-01T07:02:20.751Z,23.04
2023-05-01T07:03:21.031Z,23.09
2023-05-01T07:05:20.791Z,23.06
2023-05-01T07:06:20.818Z,23.09
2023-05-01T07:07:20.797Z,23.06
2023-05-01T07:08:20.835Z,23.09
2023-05-01T07:09:20.856Z,23.03
2023-05-01T07:10:21.197Z,23.04
2023-05-01T07:11:21.013Z,23.19
2023-05-01T07:12:20.949Z,23.18
2023-05-01T07:13:20.964Z,23.16
2023-05-01T07:14:20.998Z,23.15
2023-05-01T07:15:21.023Z,23.18
2023-05-01T07:16:21.088Z,23.19
2023-05-01T07:17:21.415Z,23.14
2023-05-01T07:18:21.110Z,23.21
2023-05-01T07:19:21.148Z,23.22
2023-05-01T07:20:21.168Z,23.19
2023-05-01T07:21:21.205Z,23.25
2023-05-01T07:22:21.268Z,23.29
2023-05-01T07:23:21.267Z,23.26
2023-05-01T07:24:21.576Z,23.35
2023-05-01T07:25:21.312Z,23.32
2023-05-01T07:26:21.348Z,23.35
2023-05-01T07:27:21.377Z,23.32
2023-05-01T07:28:21.403Z,23.34
2023-05-01T07:30:21.461Z,23.39
2023-05-01T07:31:21.886Z,23.41
2023-05-01T07:33:21.639Z,23.45
2023-05-01T07:34:21.573Z,23.44
2023-05-01T07:35:21.702Z,23.54
2023-05-01T07:36:21.739Z,23.52
2023-05-01T07:37:21.658Z,23.50
2023-05-01T07:38:22.139Z,23.54
2023-05-01T07:40:21.744Z,23.60
2023-05-01T07:41:21.776Z,23.67
2023-05-01T07:42:21.812Z,23.62
2023-05-01T07:43:21.840Z,23.64
2023-05-01T07:44:21.860Z,23.67
2023-05-01T07:45:22.190Z,23.62
2023-05-01T07:46:21.947Z,23.63
2023-05-01T07:47:21.946Z,23.62
2023-05-01T07:48:21.984Z,23.64
2023-05-01T07:50:22.052Z,23.68
2023-05-01T07:51:22.070Z,23.74
2023-05-01T07:52:22.390Z,23.75
2023-05-01T07:53:22.116Z,23.72
2023-05-01T07:54:22.194Z,23.79
2023-05-01T07:55:22.186Z,23.86
2023-05-01T07:56:22.203Z,23.74
2023-05-01T07:57:22.236Z,23.78
2023-05-01T07:58:22.572Z,23.84
2023-05-01T07:59:22.297Z,23.82
2023-05-01T08:00:22.335Z,23.90
2023-05-01T08:01:22.358Z,23.90
2023-05-01T08:02:22.518Z,23.92
2023-05-01T08:03:22.573Z,23.96
2023-05-01T08:04:22.956Z,23.87
2023-05-01T08:05:22.628Z,23.89
2023-05-01T08:06:22.583Z,23.92
2023-05-01T08:07:22.542Z,23.94
2023-05-01T08:08:22.566Z,23.94
2023-05-01T08:09:22.728Z,23.92
2023-05-01T08:10:23.128Z,23.97
2023-05-01T08:11:22.648Z,23.92
2023-05-01T08:12:22.680Z,23.99
2023-05-01T08:13:22.716Z,23.93
2023-05-01T08:14:22.745Z,23.99
2023-05-01T08:15:22.763Z,24.04
2023-05-01T08:16:22.912Z,24.00
2023-05-01T08:17:23.159Z,24.02
2023-05-01T08:18:22.858Z,24.02
2023-05-01T08:19:22.884Z,24.08
2023-05-01T08:20:22.956Z,24.15
2023-05-01T08:21:22.942Z,24.15
2023-05-01T08:22:23.003Z,24.14
2023-05-01T08:23:23.023Z,24.16
2023-05-01T08:24:23.328Z,24.19
2023-05-01T08:25:23.073Z,24.18
2023-05-01T08:26:23.151Z,24.09
2023-05-01T08:27:23.119Z,24.18
2023-05-01T08:28:23.149Z,24.18
2023-05-01T08:29:23.189Z,24.15
2023-05-01T08:30:23.320Z,24.16
2023-05-01T08:31:23.574Z,24.21
2023-05-01T08:32:23.278Z,24.08
2023-05-01T08:33:23.295Z,24.21
2023-05-01T08:34:23.333Z,24.18
2023-05-01T08:35:23.473Z,24.24
2023-05-01T08:37:23.417Z,24.26
2023-05-01T08:38:23.742Z,24.27
2023-05-01T08:39:23.475Z,24.23
2023-05-01T08:40:23.502Z,24.19
2023-05-01T08:41:23.540Z,24.23
2023-05-01T08:42:23.598Z,24.27
2023-05-01T08:43:23.605Z,24.26
2023-05-01T08:45:23.659Z,24.27
2023-05-01T08:46:24.028Z,24.30
2023-05-01T08:47:23.750Z,24.30
2023-05-01T08:48:23.740Z,24.33
2023-05-01T08:49:23.774Z,24.30
2023-05-01T08:50:23.803Z,24.33
2023-05-01T08:51:23.873Z,24.36
2023-05-01T08:52:23.873Z,24.33
2023-05-01T08:53:24.186Z,24.30
2023-05-01T08:55:23.952Z,24.31
2023-05-01T08:56:24.096Z,24.30
2023-05-01T08:57:24.010Z,24.37
2023-05-01T09:00:24.121Z,24.41
2023-05-01T09:01:24.431Z,24.41
2023-05-01T09:02:24.263Z,24.44
2023-05-01T09:03:24.295Z,24.36
2023-05-01T09:04:24.352Z,24.37
2023-05-01T09:05:24.260Z,24.37
2023-05-01T09:06:24.321Z,24.34
2023-05-01T09:07:24.310Z,24.37
2023-05-01T09:08:24.641Z,24.39
2023-05-01T09:09:24.372Z,24.37
2023-05-01T09:10:24.495Z,24.41
2023-05-01T09:11:24.444Z,24.44
2023-05-01T09:12:24.459Z,24.44
2023-05-01T09:13:24.498Z,24.37
2023-05-01T09:14:24.513Z,24.44
2023-05-01T09:15:24.849Z,24.41
2023-05-01T09:16:24.847Z,24.37
2023-05-01T09:17:24.683Z,24.34
2023-05-01T09:18:24.632Z,24.42
2023-05-01T09:19:24.668Z,24.39
2023-05-01T09:20:24.717Z,24.33
2023-05-01T09:21:24.735Z,24.39
2023-05-01T09:22:25.070Z,24.39
2023-05-01T09:23:24.800Z,24.46
2023-05-01T09:24:24.868Z,24.46
2023-05-01T09:25:24.842Z,24.39
2023-05-01T09:26:24.878Z,24.41
2023-05-01T09:27:24.923Z,24.46
2023-05-01T09:28:24.955Z,24.45
2023-05-01T09:29:25.233Z,24.49
2023-05-01T09:30:25.001Z,24.49
2023-05-01T09:31:25.194Z,24.48
2023-05-01T09:32:25.710Z,24.51
2023-05-01T09:33:25.249Z,24.51
2023-05-01T09:34:25.111Z,24.52
2023-05-01T09:35:25.199Z,24.49
2023-05-01T09:36:25.474Z,24.52
2023-05-01T09:37:25.217Z,24.51
2023-05-01T09:39:25.293Z,24.45
2023-05-01T09:40:25.302Z,24.61
2023-05-01T09:41:25.324Z,24.53
2023-05-01T09:42:25.366Z,24.56
2023-05-01T09:43:25.718Z,24.48
2023-05-01T09:44:25.427Z,24.61
2023-05-01T09:45:25.443Z,24.61
2023-05-01T09:46:25.515Z,24.60
2023-05-01T09:47:25.537Z,24.60
2023-05-01T09:48:25.556Z,24.61
2023-05-01T09:49:25.586Z,24.66
2023-05-01T09:50:25.919Z,24.61
2023-05-01T09:51:25.629Z,24.60
2023-05-01T09:52:25.664Z,24.66
2023-05-01T09:53:25.703Z,24.71
2023-05-01T09:54:25.731Z,24.63
2023-05-01T09:55:26.089Z,24.70
2023-05-01T09:56:25.792Z,24.74
2023-05-01T09:57:26.117Z,24.68
2023-05-01T09:58:25.841Z,24.74
2023-05-01T09:59:25.901Z,24.74
2023-05-01T10:00:25.909Z,24.74
2023-05-01T10:01:25.951Z,24.71
2023-05-01T10:02:26.234Z,24.82
2023-05-01T10:03:26.512Z,24.71
2023-05-01T10:04:26.620Z,24.84
2023-05-01T10:05:26.246Z,24.75
2023-05-01T10:06:26.385Z,24.77
2023-05-01T10:07:26.427Z,24.80
2023-05-01T10:08:26.146Z,24.84
2023-05-01T10:09:26.182Z,24.93
2023-05-01T10:11:26.241Z,24.90
2023-05-01T10:12:26.568Z,24.89
2023-05-01T10:14:26.331Z,24.90
2023-05-01T10:15:27.071Z,24.94
2023-05-01T10:16:26.461Z,24.90
2023-05-01T10:17:26.445Z,24.97
2023-05-01T10:19:26.792Z,24.98
2023-05-01T10:20:26.538Z,25.02
2023-05-01T10:21:26.564Z,24.97
2023-05-01T10:22:26.577Z,25.01
2023-05-01T10:23:26.615Z,24.97
2023-05-01T10:24:26.639Z,25.01
2023-05-01T10:25:26.766Z,24.99
2023-05-01T10:26:27.002Z,25.05
2023-05-01T10:27:26.726Z,25.02
2023-05-01T10:28:26.755Z,25.08
2023-05-01T10:29:26.815Z,25.02
2023-05-01T10:30:26.820Z,25.02
2023-05-01T10:31:26.860Z,25.09
2023-05-01T10:32:26.911Z,25.05
2023-05-01T10:33:27.216Z,25.11
2023-05-01T10:34:28.414Z,25.07
2023-05-01T10:35:26.994Z,25.11
2023-05-01T10:36:27.050Z,25.12
2023-05-01T10:37:27.076Z,25.12
2023-05-01T10:38:27.063Z,25.19
2023-05-01T10:39:27.096Z,25.20
2023-05-01T10:41:27.456Z,25.16
2023-05-01T10:42:27.182Z,25.16
2023-05-01T10:43:27.216Z,25.14
2023-05-01T10:44:27.359Z,25.08
2023-05-01T10:45:27.269Z,25.22
2023-05-01T10:46:27.393Z,25.19
2023-05-01T10:47:27.340Z,25.11
2023-05-01T10:49:27.710Z,25.23
2023-05-01T10:50:27.421Z,25.20
2023-05-01T10:51:28.040Z,25.19
2023-05-01T10:52:27.504Z,25.23
2023-05-01T10:54:27.550Z,25.22
2023-05-01T10:55:27.617Z,25.17
2023-05-01T10:56:27.870Z,25.19
2023-05-01T10:57:27.637Z,25.23
2023-05-01T10:59:27.713Z,25.26
2023-05-01T11:00:27.729Z,25.23
2023-05-01T11:01:27.801Z,25.19
2023-05-01T11:02:27.912Z,25.22
2023-05-01T11:03:28.120Z,25.26
2023-05-01T11:04:27.864Z,25.27
2023-05-01T11:05:38.225Z,25.20
2023-05-01T11:06:28.035Z,25.20
2023-05-01T11:07:27.952Z,25.23
2023-05-01T11:09:28.026Z,25.23
2023-05-01T11:10:28.361Z,25.23
2023-05-01T11:11:28.074Z,25.20
2023-05-01T11:12:28.109Z,25.24
2023-05-01T11:13:28.134Z,25.23
2023-05-01T11:14:28.468Z,25.22
2023-05-01T11:15:28.302Z,25.22
2023-05-01T11:16:28.246Z,25.26
2023-05-01T11:18:28.288Z,25.20
2023-05-01T11:19:29.379Z,25.23
2023-05-01T11:20:28.368Z,25.22
2023-05-01T11:21:28.394Z,25.24
2023-05-01T11:22:28.415Z,25.20
2023-05-01T11:23:28.444Z,25.22
2023-05-01T11:24:28.782Z,25.26
2023-05-01T11:25:28.529Z,25.23
2023-05-01T11:26:29.293Z,25.20
2023-05-01T11:27:28.581Z,25.20
2023-05-01T11:28:28.593Z,25.11
2023-05-01T11:29:28.659Z,25.22
2023-05-01T11:30:28.659Z,25.26
2023-05-01T11:31:29.075Z,25.20
2023-05-01T11:32:28.746Z,25.23
2023-05-01T11:34:28.784Z,25.20
2023-05-01T11:35:28.813Z,25.26
2023-05-01T11:36:28.862Z,25.24
2023-05-01T11:37:28.896Z,25.22
2023-05-01T11:38:29.205Z,25.22
2023-05-01T11:39:28.939Z,25.23
2023-05-01T11:40:28.968Z,25.23
2023-05-01T11:41:29.024Z,25.23
2023-05-01T11:42:29.080Z,25.30
2023-05-01T11:43:29.057Z,25.27
2023-05-01T11:44:29.086Z,25.29
2023-05-01T11:45:29.542Z,25.35
2023-05-01T11:46:29.247Z,25.36
2023-05-01T11:47:29.252Z,25.35
2023-05-01T11:48:29.219Z,25.29
2023-05-01T11:49:29.244Z,25.31
2023-05-01T11:50:29.280Z,25.35
2023-05-01T11:51:29.309Z,25.31
2023-05-01T11:52:29.734Z,25.41
2023-05-01T11:53:29.365Z,25.41
2023-05-01T11:54:29.399Z,25.34
2023-05-01T11:55:29.427Z,25.41
2023-05-01T11:56:29.459Z,25.42
2023-05-01T11:57:29.618Z,25.46
2023-05-01T11:58:29.570Z,25.38
2023-05-01T11:59:29.862Z,25.36
2023-05-01T12:00:29.704Z,25.34
2023-05-01T12:01:29.615Z,25.45
2023-05-01T12:02:29.708Z,25.46
2023-05-01T12:03:29.882Z,25.41
2023-05-01T12:04:32.316Z,25.42
2023-05-01T12:05:30.038Z,25.44
2023-05-01T12:06:29.836Z,25.35
2023-05-01T12:07:29.798Z,25.39
2023-05-01T12:08:29.833Z,25.35
2023-05-01T12:09:29.862Z,25.44
2023-05-01T12:10:29.894Z,25.48
2023-05-01T12:11:30.221Z,25.44
2023-05-01T12:12:29.955Z,25.38
2023-05-01T12:13:30.012Z,25.48
2023-05-01T12:14:30.016Z,25.45
2023-05-01T12:15:30.053Z,25.45
2023-05-01T12:16:30.096Z,25.57
2023-05-01T12:17:30.513Z,25.49
2023-05-01T12:18:30.148Z,25.54
2023-05-01T12:19:30.188Z,25.49
2023-05-01T12:22:30.378Z,25.56
2023-05-01T12:23:30.303Z,25.56
2023-05-01T12:24:30.640Z,25.60
2023-05-01T12:25:30.357Z,25.63
2023-05-01T12:26:30.397Z,25.54
2023-05-01T12:27:30.419Z,25.66
2023-05-01T12:28:30.521Z,25.67
2023-05-01T12:29:30.598Z,25.66
2023-05-01T12:30:30.537Z,25.63
2023-05-01T12:31:30.848Z,25.67
2023-05-01T12:32:30.715Z,25.76
2023-05-01T12:33:30.604Z,25.75
2023-05-01T12:34:30.653Z,25.71
2023-05-01T12:35:30.690Z,25.78
2023-05-01T12:36:30.693Z,25.78
2023-05-01T12:38:31.061Z,25.78
2023-05-01T12:39:30.795Z,25.78
2023-05-01T12:40:30.846Z,25.75
2023-05-01T12:41:30.853Z,25.76
2023-05-01T12:42:30.891Z,25.66
2023-05-01T12:43:30.929Z,25.71
2023-05-01T12:44:30.949Z,25.64
2023-05-01T12:45:31.252Z,25.67
2023-05-01T12:46:31.062Z,25.64
2023-05-01T12:47:31.096Z,25.59
2023-05-01T12:48:31.068Z,25.66
2023-05-01T12:49:31.103Z,25.61
2023-05-01T12:50:31.140Z,25.71
2023-05-01T12:51:31.164Z,25.74
2023-05-01T12:52:31.497Z,25.69
2023-05-01T12:53:31.226Z,25.67
2023-05-01T12:54:31.260Z,25.66
2023-05-01T12:56:31.322Z,25.63
2023-05-01T12:57:31.360Z,25.69
2023-05-01T12:58:31.387Z,25.60
2023-05-01T12:59:31.713Z,25.61
2023-05-01T13:00:31.449Z,25.57
2023-05-01T13:01:31.773Z,25.56
2023-05-01T13:03:31.613Z,25.53
2023-05-01T13:04:31.693Z,25.57
2023-05-01T13:05:31.627Z,25.48
2023-05-01T13:06:31.941Z,25.45
2023-05-01T13:07:31.676Z,25.48
2023-05-01T13:08:31.696Z,25.51
2023-05-01T13:09:31.737Z,25.57
2023-05-01T13:10:31.766Z,25.45
2023-05-01T13:11:31.793Z,25.46
2023-05-01T13:12:31.824Z,25.45
2023-05-01T13:13:32.152Z,25.38
2023-05-01T13:14:31.935Z,25.39
2023-05-01T13:15:31.919Z,25.31
2023-05-01T13:16:32.201Z,25.31
2023-05-01T13:17:32.076Z,25.20
2023-05-01T13:18:32.022Z,25.20
2023-05-01T13:19:32.045Z,25.24
2023-05-01T13:20:32.372Z,25.19
2023-05-01T13:21:32.109Z,25.14
2023-05-01T13:22:32.138Z,25.17
2023-05-01T13:23:32.184Z,25.11
2023-05-01T13:24:32.194Z,25.16
2023-05-01T13:25:32.229Z,25.16
2023-05-01T13:26:32.262Z,25.12
2023-05-01T13:27:32.554Z,25.14
2023-05-01T13:28:32.321Z,25.11
2023-05-01T13:29:32.399Z,25.09
2023-05-01T13:30:32.501Z,25.11
2023-05-01T13:31:32.446Z,25.07
2023-05-01T13:32:32.484Z,25.04
2023-05-01T13:33:32.516Z,25.05
2023-05-01T13:34:32.821Z,24.99
2023-05-01T13:35:32.546Z,25.01
2023-05-01T13:37:32.753Z,24.99
2023-05-01T13:38:32.677Z,24.94
2023-05-01T13:39:32.678Z,24.94
2023-05-01T13:40:32.706Z,24.94
2023-05-01T13:41:33.018Z,24.93
2023-05-01T13:42:32.766Z,24.89
2023-05-01T13:43:32.792Z,24.93
2023-05-01T13:44:32.829Z,24.89
2023-05-01T13:45:32.963Z,24.94
2023-05-01T13:46:32.953Z,24.89
2023-05-01T13:47:32.943Z,24.94
2023-05-01T13:48:33.240Z,24.92
2023-05-01T13:49:32.990Z,24.87
2023-05-01T13:50:33.001Z,24.87
2023-05-01T13:52:33.068Z,24.87
2023-05-01T13:53:33.103Z,24.89
2023-05-01T13:54:33.418Z,24.82
2023-05-01T13:55:33.156Z,24.84
2023-05-01T13:56:33.190Z,24.89
2023-05-01T13:57:33.219Z,24.82
2023-05-01T13:59:33.331Z,24.89
2023-05-01T14:00:33.619Z,24.86
2023-05-01T14:01:33.383Z,24.75
2023-05-01T14:02:33.496Z,24.80
2023-05-01T14:03:33.482Z,24.77